Pe Ell, Washington
Current Conditions -  °F | °C
As of 7:15 PM on Monday 20 Oct 2014 (Local Time) from KCLS Reporting Station
Light Rain Light Rain  
Wind Chill: 57°   Ceiling: 4700
Heat Index: 57°   Visibility: 10mi
Dew Point: 55°   Wind: 6mph
Humidity: 94%   Direction: 150°SSE
Pressure: 29.77"   Gusts: NA
Location:  46.57°N, 123.3°W
Report Text: KCLS 210215Z AUTO 15005KT 10SM -RA SCT023 SCT038 OVC047 14/13 A2977 RMK AO2
Loading
Personal Weather Stations






























Interactive Weather Map
Tropical Storm Tracking
New forecast layout! Learn more

10-Day Weather Forecast

Advertisements
Track Severe Weather on mobile